createdAt,value
2024-04-02T00:01:31.930Z,56.79
2024-04-02T00:03:39.919Z,57.03
2024-04-02T00:05:48.393Z,58.08
2024-04-02T00:07:55.794Z,59.69
2024-04-02T00:10:03.166Z,64.17
2024-04-02T00:12:11.376Z,65.21
2024-04-02T00:14:19.080Z,61.45
2024-04-02T00:16:26.544Z,55.88
2024-04-02T00:18:33.887Z,54.30
2024-04-02T00:20:41.260Z,57.06
2024-04-02T00:22:49.233Z,58.55
2024-04-02T00:24:56.570Z,60.35
2024-04-02T00:27:04.280Z,60.98
2024-04-02T00:29:11.805Z,65.95
2024-04-02T00:31:21.863Z,66.70
2024-04-02T00:33:29.308Z,60.60
2024-04-02T00:35:36.789Z,55.57
2024-04-02T00:37:44.473Z,54.21
2024-04-02T00:39:52.229Z,56.07
2024-04-02T00:41:59.629Z,57.39
2024-04-02T00:44:07.129Z,58.23
2024-04-02T00:46:14.690Z,60.54
2024-04-02T00:48:24.490Z,65.43
2024-04-02T00:50:32.759Z,65.57
2024-04-02T00:52:41.483Z,60.63
2024-04-02T00:54:49.058Z,55.14
2024-04-02T00:56:56.535Z,54.24
2024-04-02T00:59:04.298Z,55.04
2024-04-02T01:01:12.599Z,57.22
2024-04-02T01:03:19.952Z,57.95
2024-04-02T01:05:27.446Z,60.65
2024-04-02T01:07:36.705Z,65.39
2024-04-02T01:09:46.344Z,65.89
2024-04-02T01:11:55.097Z,60.73
2024-04-02T01:14:02.949Z,55.36
2024-04-02T01:16:14.255Z,53.31
2024-04-02T01:18:22.113Z,55.34
2024-04-02T01:20:29.558Z,58.62
2024-04-02T01:22:37.004Z,60.19
2024-04-02T01:24:50.496Z,64.47
2024-04-02T01:26:59.149Z,64.81
2024-04-02T01:29:07.222Z,59.57
2024-04-02T01:31:14.684Z,53.74
2024-04-02T01:33:22.206Z,54.68
2024-04-02T01:35:29.725Z,55.27
2024-04-02T01:37:37.148Z,56.48
2024-04-02T01:39:44.914Z,57.36
2024-04-02T01:41:52.253Z,59.58
2024-04-02T01:43:59.802Z,66.21
2024-04-02T01:46:07.664Z,66.55
2024-04-02T01:48:15.023Z,60.83
2024-04-02T01:50:22.921Z,55.51
2024-04-02T01:52:30.957Z,54.53
2024-04-02T02:00:07.558Z,58.57
2024-04-02T02:02:15.128Z,60.62
2024-04-02T02:04:23.229Z,68.05
2024-04-02T02:06:30.678Z,67.66
2024-04-02T02:08:38.227Z,61.58
2024-04-02T02:10:45.594Z,56.41
2024-04-02T02:12:53.350Z,55.15
2024-04-02T02:15:01.036Z,56.41
2024-04-02T02:17:09.135Z,58.88
2024-04-02T02:19:16.506Z,60.33
2024-04-02T02:21:24.167Z,66.38
2024-04-02T02:23:31.859Z,67.45
2024-04-02T02:25:39.238Z,62.02
2024-04-02T02:27:46.577Z,56.28
2024-04-02T02:29:54.305Z,54.85
2024-04-02T02:32:03.264Z,56.08
2024-04-02T02:34:12.883Z,57.90
2024-04-02T02:36:21.050Z,59.64
2024-04-02T02:38:28.790Z,60.44
2024-04-02T02:40:36.352Z,66.06
2024-04-02T02:42:46.327Z,66.62
2024-04-02T02:44:53.766Z,60.51
2024-04-02T02:47:01.474Z,55.07
2024-04-02T02:49:08.871Z,54.15
2024-04-02T02:51:16.287Z,56.09
2024-04-02T02:53:24.000Z,58.02
2024-04-02T02:55:31.789Z,57.99
2024-04-02T02:57:40.109Z,60.81
2024-04-02T02:59:48.625Z,66.30
2024-04-02T03:01:57.477Z,65.57
2024-04-02T03:04:05.341Z,59.90
2024-04-02T03:06:12.748Z,53.96
2024-04-02T03:08:20.403Z,53.80
2024-04-02T03:10:27.952Z,55.17
2024-04-02T03:12:35.701Z,57.16
2024-04-02T03:14:43.450Z,58.89
2024-04-02T03:16:50.844Z,64.09
2024-04-02T03:18:58.579Z,66.82
2024-04-02T03:21:06.799Z,61.78
2024-04-02T03:23:14.241Z,54.98
2024-04-02T03:25:21.591Z,53.16
2024-04-02T03:27:29.106Z,54.27
2024-04-02T03:29:36.572Z,56.88
2024-04-02T03:31:44.536Z,57.49
2024-04-02T03:33:51.900Z,59.07
2024-04-02T03:36:04.387Z,64.24
2024-04-02T03:38:12.652Z,65.45
2024-04-02T03:40:20.783Z,61.06
2024-04-02T03:42:28.133Z,54.43
2024-04-02T03:44:36.428Z,53.29
2024-04-02T03:46:43.818Z,54.87
2024-04-02T03:48:52.892Z,56.55
2024-04-02T03:51:00.912Z,59.83
2024-04-02T03:53:09.656Z,60.66
2024-04-02T03:55:19.949Z,67.37
2024-04-02T03:57:27.683Z,66.27
2024-04-02T03:59:37.803Z,59.42
2024-04-02T04:01:45.792Z,54.15
2024-04-02T04:03:54.008Z,53.77
2024-04-02T04:06:03.035Z,57.27
2024-04-02T04:08:11.528Z,56.38
2024-04-02T04:10:19.445Z,59.05
2024-04-02T04:12:27.241Z,60.35
2024-04-02T04:14:35.236Z,65.65
2024-04-02T04:16:42.946Z,65.66
2024-04-02T04:18:50.288Z,60.57
2024-04-02T04:20:59.634Z,55.26
2024-04-02T04:23:08.173Z,53.65
2024-04-02T04:25:16.043Z,54.38
2024-04-02T04:27:29.525Z,55.93
2024-04-02T04:29:36.848Z,56.53
2024-04-02T04:31:47.907Z,59.60
2024-04-02T04:33:55.321Z,63.05
2024-04-02T04:36:02.640Z,65.93
2024-04-02T04:38:10.267Z,60.20
2024-04-02T04:40:21.556Z,53.52
2024-04-02T04:42:33.202Z,52.50
2024-04-02T04:44:44.101Z,53.66
2024-04-02T04:46:51.814Z,55.75
2024-04-02T04:48:59.513Z,58.33
2024-04-02T04:51:08.704Z,59.60
2024-04-02T04:53:16.106Z,63.59
2024-04-02T04:55:23.601Z,65.57
2024-04-02T04:57:30.956Z,59.86
2024-04-02T04:59:38.617Z,54.04
2024-04-02T05:05:37.047Z,54.23
2024-04-02T05:07:59.172Z,57.43
2024-04-02T05:10:09.548Z,58.40
2024-04-02T05:12:16.893Z,59.98
2024-04-02T05:14:24.903Z,65.89
2024-04-02T05:16:34.894Z,65.30
2024-04-02T05:18:42.788Z,57.83
2024-04-02T05:20:50.488Z,52.82
2024-04-02T05:22:58.076Z,53.31
2024-04-02T05:25:06.499Z,56.89
2024-04-02T05:27:13.861Z,56.47
2024-04-02T05:29:21.557Z,58.79
2024-04-02T05:31:29.002Z,59.34
2024-04-02T05:33:36.752Z,60.22
2024-04-02T05:35:44.137Z,65.54
2024-04-02T05:37:53.024Z,64.52
2024-04-02T05:40:00.374Z,59.55
2024-04-02T05:42:12.237Z,53.57
2024-04-02T05:44:19.673Z,53.33
2024-04-02T05:46:27.081Z,54.86
2024-04-02T05:48:34.840Z,57.67
2024-04-02T05:50:42.566Z,59.10
2024-04-02T05:52:50.671Z,61.36
2024-04-02T05:54:58.422Z,63.95
2024-04-02T05:57:06.705Z,64.60
2024-04-02T05:59:14.462Z,58.70
2024-04-02T06:01:23.414Z,53.17
2024-04-02T06:03:30.766Z,53.05
2024-04-02T06:05:39.185Z,55.89
2024-04-02T06:07:46.579Z,56.04
2024-04-02T06:09:55.072Z,58.61
2024-04-02T06:12:02.883Z,61.36
2024-04-02T06:14:10.808Z,59.94
2024-04-02T06:16:18.686Z,66.29
2024-04-02T06:18:26.090Z,64.22
2024-04-02T06:20:33.940Z,59.37
2024-04-02T06:22:41.319Z,54.18
2024-04-02T06:24:49.539Z,53.61
2024-04-02T06:26:56.923Z,55.59
2024-04-02T06:29:04.265Z,58.27
2024-04-02T06:31:11.776Z,57.88
2024-04-02T06:33:19.337Z,59.99
2024-04-02T06:35:26.691Z,60.59
2024-04-02T06:37:34.550Z,63.88
2024-04-02T06:39:41.887Z,65.23
2024-04-02T06:41:49.436Z,59.45
2024-04-02T06:43:56.900Z,53.25
2024-04-02T06:46:04.905Z,52.26
2024-04-02T06:48:12.368Z,53.09
2024-04-02T06:50:19.840Z,55.68
2024-04-02T06:52:27.243Z,59.37
2024-04-02T06:54:34.627Z,60.43
2024-04-02T06:56:42.449Z,62.17
2024-04-02T06:58:49.858Z,65.69
2024-04-02T07:00:57.268Z,62.66
2024-04-02T07:03:05.187Z,55.89
2024-04-02T07:05:12.629Z,53.23
2024-04-02T07:07:20.366Z,52.93
2024-04-02T07:09:27.797Z,54.73
2024-04-02T07:11:35.191Z,56.90
2024-04-02T07:13:43.344Z,59.51
2024-04-02T07:15:50.737Z,59.68
2024-04-02T07:17:58.117Z,61.50
2024-04-02T07:20:06.617Z,66.24
2024-04-02T07:22:13.994Z,64.14
2024-04-02T07:24:21.858Z,56.05
2024-04-02T07:26:29.982Z,54.40
2024-04-02T07:28:37.704Z,56.68
2024-04-02T07:30:45.270Z,57.61
2024-04-02T07:32:53.187Z,58.94
2024-04-02T07:35:01.313Z,60.64
2024-04-02T07:37:09.415Z,60.21
2024-04-02T07:39:17.045Z,64.08
2024-04-02T07:41:30.448Z,65.72
2024-04-02T07:43:38.184Z,57.68
2024-04-02T07:45:54.742Z,53.49
2024-04-02T07:48:04.797Z,54.07
2024-04-02T07:50:12.425Z,56.05
2024-04-02T07:52:20.090Z,58.97
2024-04-02T07:54:27.635Z,58.56
2024-04-02T07:56:35.337Z,61.23
2024-04-02T07:58:43.379Z,61.22
2024-04-02T08:00:51.323Z,65.46
2024-04-02T08:02:59.244Z,61.58
2024-04-02T08:05:08.275Z,55.78
2024-04-02T08:07:18.400Z,55.30
2024-04-02T08:09:26.043Z,55.75
2024-04-02T08:11:33.450Z,57.10
2024-04-02T08:13:40.821Z,58.20
2024-04-02T08:15:52.039Z,58.69
2024-04-02T08:17:59.651Z,58.08
2024-04-02T08:20:10.075Z,60.62
2024-04-02T08:22:19.523Z,61.05
2024-04-02T08:24:27.064Z,60.42
2024-04-02T08:26:34.499Z,61.35
2024-04-02T08:28:41.947Z,61.47
2024-04-02T08:30:49.340Z,60.81
2024-04-02T08:32:56.676Z,62.52
2024-04-02T08:35:06.048Z,65.38
2024-04-02T08:37:13.781Z,57.16
2024-04-02T08:39:21.123Z,52.93
2024-04-02T08:41:29.424Z,51.86
2024-04-02T08:43:37.245Z,54.52
2024-04-02T08:45:45.924Z,55.66
2024-04-02T08:47:54.201Z,55.87
2024-04-02T08:50:02.897Z,56.33
2024-04-02T08:52:10.455Z,57.71
2024-04-02T08:54:17.796Z,58.19
2024-04-02T08:56:25.580Z,59.90
2024-04-02T08:58:35.037Z,59.52
2024-04-02T09:00:42.559Z,60.50
2024-04-02T09:02:50.164Z,59.75
2024-04-02T09:04:57.994Z,60.61
2024-04-02T09:07:05.929Z,61.51
2024-04-02T09:09:24.502Z,61.16
2024-04-02T09:11:32.126Z,64.42
2024-04-02T09:13:40.716Z,61.59
2024-04-02T09:15:50.134Z,56.73
2024-04-02T09:17:58.055Z,51.89
2024-04-02T09:20:07.263Z,53.17
2024-04-02T09:22:17.803Z,54.91
2024-04-02T09:24:26.011Z,55.84
2024-04-02T09:26:33.720Z,56.98
2024-04-02T09:28:44.263Z,58.02
2024-04-02T09:30:51.791Z,59.14
2024-04-02T09:33:03.517Z,58.21
2024-04-02T09:35:15.236Z,59.45
2024-04-02T09:37:35.458Z,59.91
2024-04-02T09:39:44.268Z,60.29
2024-04-02T09:42:02.283Z,60.98
2024-04-02T09:44:14.048Z,61.30
2024-04-02T09:46:23.679Z,61.79
2024-04-02T09:48:33.172Z,64.52
2024-04-02T09:50:44.036Z,66.03
2024-04-02T09:52:54.228Z,56.76
2024-04-02T09:55:04.072Z,52.58
2024-04-02T09:57:15.301Z,53.33
2024-04-02T09:59:23.349Z,53.64
2024-04-02T10:01:33.946Z,54.62
2024-04-02T10:03:45.424Z,57.25
2024-04-02T10:05:53.772Z,55.46
2024-04-02T10:08:01.172Z,58.29
2024-04-02T10:10:09.235Z,57.63
2024-04-02T10:12:21.430Z,58.93
2024-04-02T10:14:29.225Z,58.24
2024-04-02T10:16:40.758Z,58.72
2024-04-02T10:18:49.454Z,59.25
2024-04-02T10:21:00.894Z,57.41
2024-04-02T10:23:11.562Z,57.98
2024-04-02T10:25:18.933Z,59.12
2024-04-02T10:27:27.892Z,59.38
2024-04-02T10:29:35.266Z,58.43
2024-04-02T10:31:44.879Z,59.55
2024-04-02T10:33:55.487Z,59.74
2024-04-02T10:36:03.398Z,58.87
2024-04-02T10:38:11.547Z,59.39
2024-04-02T10:40:20.171Z,58.49
2024-04-02T10:42:27.877Z,58.87
2024-04-02T10:44:36.017Z,58.67
2024-04-02T10:46:45.280Z,58.55
2024-04-02T10:48:52.971Z,58.23
2024-04-02T10:51:00.658Z,58.95
2024-04-02T10:53:08.512Z,58.93
2024-04-02T10:55:16.641Z,58.81
2024-04-02T10:57:24.233Z,58.91
2024-04-02T10:59:37.228Z,58.96
2024-04-02T11:01:45.214Z,58.95
2024-04-02T11:03:54.362Z,58.89
2024-04-02T11:06:12.164Z,58.73
2024-04-02T11:08:19.911Z,58.68
2024-04-02T11:10:27.340Z,58.52
2024-04-02T11:12:34.743Z,58.71
2024-04-02T11:14:42.890Z,58.60
2024-04-02T11:16:53.478Z,58.09
2024-04-02T11:19:02.834Z,57.44
2024-04-02T11:21:15.634Z,58.12
2024-04-02T11:23:45.089Z,58.30
2024-04-02T11:25:54.101Z,58.10
2024-04-02T11:28:10.338Z,58.21
2024-04-02T11:30:21.426Z,57.84
2024-04-02T11:32:30.179Z,57.64
2024-04-02T11:34:37.539Z,57.55
2024-04-02T11:36:45.222Z,58.15
2024-04-02T11:38:52.662Z,58.00
2024-04-02T11:41:03.081Z,58.34
2024-04-02T11:43:10.614Z,57.19
2024-04-02T11:45:18.365Z,57.17
2024-04-02T11:47:25.796Z,56.41
2024-04-02T11:49:33.539Z,56.32
2024-04-02T11:51:40.855Z,56.01
2024-04-02T11:53:48.544Z,55.52
2024-04-02T11:55:56.801Z,55.52
2024-04-02T11:58:22.153Z,55.63
2024-04-02T12:00:30.259Z,55.42
2024-04-02T12:02:37.934Z,55.07
2024-04-02T12:04:46.090Z,55.64
2024-04-02T12:06:59.035Z,55.47
2024-04-02T12:09:10.175Z,56.01
2024-04-02T12:11:18.345Z,55.59
2024-04-02T12:13:26.134Z,55.27
2024-04-02T12:15:34.143Z,55.19
2024-04-02T12:17:41.854Z,54.95
2024-04-02T12:19:49.716Z,54.05
2024-04-02T12:21:57.468Z,53.50
2024-04-02T12:24:06.519Z,53.46
2024-04-02T12:26:14.590Z,53.66
2024-04-02T12:28:21.935Z,53.21
2024-04-02T12:30:32.649Z,52.77
2024-04-02T12:32:44.630Z,52.57
2024-04-02T12:34:53.102Z,51.86
2024-04-02T12:37:02.249Z,51.32
2024-04-02T12:39:09.973Z,51.78
2024-04-02T12:41:17.659Z,51.79
2024-04-02T12:43:25.039Z,51.99
2024-04-02T12:45:33.113Z,51.78
2024-04-02T12:47:42.468Z,51.53
2024-04-02T12:49:50.410Z,50.41
2024-04-02T12:51:57.761Z,50.20
2024-04-02T12:54:05.930Z,49.93
2024-04-02T12:56:15.299Z,50.38
2024-04-02T12:58:28.415Z,49.71
2024-04-02T13:00:42.603Z,50.55
2024-04-02T13:02:50.410Z,50.16
2024-04-02T13:05:00.202Z,49.63
2024-04-02T13:07:07.885Z,50.53
2024-04-02T13:09:15.486Z,50.65
2024-04-02T13:11:22.874Z,50.17
2024-04-02T13:13:30.544Z,50.89
2024-04-02T13:15:38.266Z,50.53
2024-04-02T13:17:45.965Z,50.49
2024-04-02T13:19:54.325Z,50.34
2024-04-02T13:22:02.030Z,50.22
2024-04-02T13:24:10.860Z,50.03
2024-04-02T13:26:18.736Z,49.96
2024-04-02T13:28:26.495Z,49.91
2024-04-02T13:30:34.003Z,49.66
2024-04-02T13:32:41.483Z,50.01
2024-04-02T13:34:50.596Z,49.96
2024-04-02T13:36:57.944Z,49.65
2024-04-02T13:39:05.594Z,49.46
2024-04-02T13:41:13.707Z,49.38
2024-04-02T13:43:21.511Z,48.84
2024-04-02T13:45:29.213Z,49.08
2024-04-02T13:47:36.845Z,49.34
2024-04-02T13:49:44.579Z,49.51
2024-04-02T13:51:51.935Z,49.38
2024-04-02T13:53:59.326Z,49.63
2024-04-02T13:56:09.464Z,49.96
2024-04-02T13:58:17.149Z,50.15
2024-04-02T14:00:24.543Z,49.88
2024-04-02T14:02:31.875Z,49.59
2024-04-02T14:04:44.825Z,49.52
2024-04-02T14:06:52.579Z,49.72
2024-04-02T14:08:59.890Z,49.93
2024-04-02T14:11:07.990Z,50.16
2024-04-02T14:13:34.480Z,50.46
2024-04-02T14:15:42.987Z,50.52
2024-04-02T14:17:50.878Z,50.53
2024-04-02T14:20:00.685Z,50.62
2024-04-02T14:22:08.338Z,50.92
2024-04-02T14:24:16.572Z,50.94
2024-04-02T14:26:25.029Z,51.04
2024-04-02T14:28:33.562Z,51.04
2024-04-02T14:30:40.889Z,51.20
2024-04-02T14:32:48.272Z,51.54
2024-04-02T14:34:57.663Z,51.69
2024-04-02T14:37:06.831Z,51.99
2024-04-02T14:39:14.257Z,51.87
2024-04-02T14:41:22.151Z,51.84
2024-04-02T14:43:31.007Z,51.73
2024-04-02T14:45:38.587Z,51.81
2024-04-02T14:47:46.754Z,52.05
2024-04-02T14:49:55.168Z,52.29
2024-04-02T14:52:02.596Z,52.69
2024-04-02T14:54:09.970Z,52.76
2024-04-02T14:56:17.420Z,52.70
2024-04-02T14:58:25.422Z,52.74
2024-04-02T15:00:33.100Z,52.20
2024-04-02T15:02:40.845Z,52.26
2024-04-02T15:04:48.511Z,52.47
2024-04-02T15:06:56.240Z,52.63
2024-04-02T15:09:12.560Z,52.89
2024-04-02T15:11:23.639Z,53.17
2024-04-02T15:13:31.451Z,52.82
2024-04-02T15:15:39.148Z,52.58
2024-04-02T15:17:46.477Z,52.57
2024-04-02T15:19:53.844Z,52.19
2024-04-02T15:22:03.253Z,51.98
2024-04-02T15:24:12.714Z,52.19
2024-04-02T15:26:20.417Z,52.36
2024-04-02T15:28:27.726Z,51.84
2024-04-02T15:30:35.059Z,51.88
2024-04-02T15:32:44.312Z,52.11
2024-04-02T15:34:52.619Z,52.30
2024-04-02T15:36:59.962Z,52.29
2024-04-02T15:39:09.265Z,52.35
2024-04-02T15:41:17.112Z,52.11
2024-04-02T15:43:24.837Z,52.02
2024-04-02T15:45:32.168Z,51.41
2024-04-02T15:47:39.835Z,51.73
2024-04-02T15:49:47.611Z,51.75
2024-04-02T15:51:55.232Z,51.96
2024-04-02T15:54:02.993Z,52.12
2024-04-02T15:56:29.407Z,52.27
2024-04-02T15:58:37.956Z,52.51
2024-04-02T16:00:45.301Z,52.87
2024-04-02T16:02:53.005Z,53.45
2024-04-02T16:05:00.751Z,54.03
2024-04-02T16:07:08.549Z,54.39
2024-04-02T16:09:15.915Z,54.70
2024-04-02T16:11:24.468Z,55.15
2024-04-02T16:13:33.393Z,55.74
2024-04-02T16:15:40.797Z,56.80
2024-04-02T16:17:48.548Z,58.06
2024-04-02T16:19:55.980Z,58.33
2024-04-02T16:22:03.343Z,59.93
2024-04-02T16:24:11.248Z,59.76
2024-04-02T16:26:18.577Z,63.78
2024-04-02T16:28:27.392Z,72.28
2024-04-02T16:30:37.351Z,65.77
2024-04-02T16:32:45.027Z,60.51
2024-04-02T16:34:55.584Z,54.21
2024-04-02T16:37:03.272Z,51.65
2024-04-02T16:39:11.340Z,52.47
2024-04-02T16:41:19.298Z,53.66
2024-04-02T16:43:28.267Z,55.36
2024-04-02T16:45:37.531Z,54.98
2024-04-02T16:47:47.616Z,56.87
2024-04-02T16:49:55.037Z,57.58
2024-04-02T16:52:02.722Z,58.23
2024-04-02T16:54:10.322Z,58.35
2024-04-02T16:56:18.328Z,58.30
2024-04-02T16:58:26.005Z,58.84
2024-04-02T17:00:33.616Z,59.46
2024-04-02T17:02:45.851Z,59.71
2024-04-02T17:04:53.183Z,60.14
2024-04-02T17:07:01.305Z,60.92
2024-04-02T17:09:09.381Z,61.13
2024-04-02T17:11:16.845Z,61.38
2024-04-02T17:13:24.271Z,61.93
2024-04-02T17:15:33.153Z,62.13
2024-04-02T17:17:40.737Z,62.03
2024-04-02T17:19:56.977Z,62.19
2024-04-02T17:22:05.811Z,69.69
2024-04-02T17:24:13.227Z,67.30
2024-04-02T17:26:21.019Z,59.28
2024-04-02T17:28:29.076Z,53.85
2024-04-02T17:30:36.419Z,53.75
2024-04-02T17:32:43.837Z,53.95
2024-04-02T17:34:53.108Z,54.83
2024-04-02T17:37:01.046Z,56.63
2024-04-02T17:39:09.616Z,57.53
2024-04-02T17:41:17.821Z,58.30
2024-04-02T17:43:26.675Z,59.37
2024-04-02T17:45:34.129Z,59.97
2024-04-02T17:47:41.550Z,60.41
2024-04-02T17:49:49.286Z,60.91
2024-04-02T17:51:59.774Z,61.38
2024-04-02T17:54:08.044Z,61.46
2024-04-02T17:56:18.432Z,62.07
2024-04-02T17:58:26.149Z,64.35
2024-04-02T18:00:33.479Z,64.86
2024-04-02T18:02:40.840Z,59.83
2024-04-02T18:04:48.409Z,55.49
2024-04-02T18:06:56.955Z,55.28
2024-04-02T18:09:04.323Z,56.79
2024-04-02T18:11:13.359Z,57.39
2024-04-02T18:13:21.080Z,58.70
2024-04-02T18:15:29.138Z,59.38
2024-04-02T18:17:36.518Z,59.27
2024-04-02T18:19:44.222Z,59.62
2024-04-02T18:21:51.546Z,61.12
2024-04-02T18:23:59.230Z,61.14
2024-04-02T18:26:08.977Z,61.48
2024-04-02T18:28:18.149Z,68.51
2024-04-02T18:30:25.523Z,71.74
2024-04-02T18:32:33.409Z,66.10
2024-04-02T18:34:40.752Z,57.23
2024-04-02T18:36:48.912Z,54.15
2024-04-02T18:38:58.403Z,54.62
2024-04-02T18:41:07.921Z,55.30
2024-04-02T18:43:16.459Z,57.08
2024-04-02T18:45:23.832Z,58.12
2024-04-02T18:47:31.555Z,59.02
2024-04-02T18:49:38.987Z,60.72
2024-04-02T18:51:46.350Z,60.83
2024-04-02T18:53:53.673Z,63.48
2024-04-02T18:56:04.311Z,68.63
2024-04-02T18:58:12.212Z,61.40
2024-04-02T19:00:21.255Z,56.34
2024-04-02T19:02:30.580Z,53.65
2024-04-02T19:04:38.326Z,54.83
2024-04-02T19:06:45.635Z,55.14
2024-04-02T19:08:52.931Z,57.18
2024-04-02T19:11:04.252Z,57.94
2024-04-02T19:13:11.824Z,58.56
2024-04-02T19:15:19.500Z,60.26
2024-04-02T19:17:26.892Z,61.04
2024-04-02T19:19:34.775Z,60.98
2024-04-02T19:21:42.120Z,65.10
2024-04-02T19:23:49.532Z,66.89
2024-04-02T19:25:58.683Z,59.52
2024-04-02T19:28:07.927Z,55.46
2024-04-02T19:30:17.358Z,55.60
2024-04-02T19:32:25.072Z,56.86
2024-04-02T19:34:32.764Z,58.82
2024-04-02T19:36:40.161Z,60.05
2024-04-02T19:38:47.896Z,60.86
2024-04-02T19:41:00.850Z,62.20
2024-04-02T19:43:08.570Z,69.66
2024-04-02T19:45:16.023Z,64.19
2024-04-02T19:47:23.546Z,56.86
2024-04-02T19:49:30.983Z,53.93
2024-04-02T19:51:39.857Z,55.69
2024-04-02T19:53:50.287Z,57.05
2024-04-02T19:55:58.713Z,57.71
2024-04-02T19:58:06.486Z,59.84
2024-04-02T20:00:15.458Z,60.63
2024-04-02T20:02:22.792Z,62.41
2024-04-02T20:04:30.138Z,64.06
2024-04-02T20:06:38.206Z,63.55
2024-04-02T20:08:46.402Z,56.60
2024-04-02T20:10:54.559Z,54.15
2024-04-02T20:13:01.956Z,54.53
2024-04-02T20:15:10.449Z,55.24
2024-04-02T20:17:18.068Z,58.09
2024-04-02T20:19:26.220Z,58.23
2024-04-02T20:21:33.569Z,60.60
2024-04-02T20:23:42.002Z,61.78
2024-04-02T20:25:49.488Z,69.06
2024-04-02T20:27:56.917Z,66.42
2024-04-02T20:30:05.238Z,61.41
2024-04-02T20:32:13.306Z,54.65
2024-04-02T20:34:20.982Z,53.11
2024-04-02T20:36:28.646Z,55.08
2024-04-02T20:38:36.609Z,55.79
2024-04-02T20:40:44.308Z,56.30
2024-04-02T20:42:51.769Z,58.02
2024-04-02T20:45:00.507Z,58.78
2024-04-02T20:47:08.754Z,60.26
2024-04-02T20:49:16.804Z,63.72
2024-04-02T20:51:24.195Z,65.04
2024-04-02T20:53:31.523Z,62.86
2024-04-02T20:55:39.280Z,57.11
2024-04-02T20:57:47.054Z,53.64
2024-04-02T20:59:54.774Z,54.05
2024-04-02T21:02:02.508Z,57.74
2024-04-02T21:04:10.076Z,58.65
2024-04-02T21:06:17.508Z,60.16
2024-04-02T21:08:24.868Z,61.38
2024-04-02T21:10:32.424Z,66.62
2024-04-02T21:12:39.820Z,63.85
2024-04-02T21:14:47.135Z,58.27
2024-04-02T21:16:54.551Z,55.40
2024-04-02T21:19:01.889Z,56.71
2024-04-02T21:21:10.415Z,58.44
2024-04-02T21:23:17.809Z,60.56
2024-04-02T21:25:25.640Z,61.96
2024-04-02T21:27:33.304Z,66.54
2024-04-02T21:29:41.127Z,61.41
2024-04-02T21:31:48.471Z,56.00
2024-04-02T21:33:56.217Z,53.57
2024-04-02T21:36:03.835Z,55.68
2024-04-02T21:38:15.101Z,57.92
2024-04-02T21:40:23.550Z,59.07
2024-04-02T21:42:30.897Z,60.13
2024-04-02T21:44:42.704Z,61.72
2024-04-02T21:46:50.743Z,67.27
2024-04-02T21:48:58.850Z,60.65
2024-04-02T21:51:08.521Z,55.86
2024-04-02T21:53:15.871Z,56.08
2024-04-02T21:55:24.022Z,57.13
2024-04-02T21:57:31.991Z,59.22
2024-04-02T21:59:39.283Z,61.04
2024-04-02T22:01:47.019Z,62.36
2024-04-02T22:03:54.320Z,68.32
2024-04-02T22:06:04.083Z,62.41
2024-04-02T22:08:13.200Z,54.88
2024-04-02T22:10:21.780Z,53.80
2024-04-02T22:12:29.181Z,55.55
2024-04-02T22:14:36.882Z,57.86
2024-04-02T22:16:44.649Z,58.97
2024-04-02T22:18:52.458Z,59.57
2024-04-02T22:21:07.181Z,62.13
2024-04-02T22:23:16.028Z,64.49
2024-04-02T22:25:23.598Z,62.42
2024-04-02T22:29:38.751Z,54.59
2024-04-02T22:31:46.063Z,55.30
2024-04-02T22:33:53.408Z,57.57
2024-04-02T22:36:00.822Z,57.87
2024-04-02T22:38:09.671Z,58.86
2024-04-02T22:40:18.127Z,62.05
2024-04-02T22:42:25.971Z,63.78
2024-04-02T22:44:33.330Z,62.86
2024-04-02T22:46:40.705Z,57.46
2024-04-02T22:48:50.095Z,54.38
2024-04-02T22:50:57.415Z,55.72
2024-04-02T22:53:05.375Z,57.70
2024-04-02T22:55:13.634Z,59.74
2024-04-02T22:57:20.998Z,60.64
2024-04-02T22:59:28.432Z,60.17
2024-04-02T23:01:35.920Z,65.04
2024-04-02T23:03:43.244Z,63.79
2024-04-02T23:05:50.645Z,58.46
2024-04-02T23:07:57.989Z,54.78
2024-04-02T23:10:06.096Z,55.80
2024-04-02T23:12:13.675Z,56.43
2024-04-02T23:14:21.799Z,58.11
2024-04-02T23:16:29.717Z,59.61
2024-04-02T23:18:37.673Z,61.33
2024-04-02T23:20:55.064Z,63.54
2024-04-02T23:23:02.767Z,65.19
2024-04-02T23:25:10.208Z,60.65
2024-04-02T23:27:17.603Z,55.00
2024-04-02T23:29:24.989Z,53.41
2024-04-02T23:31:32.360Z,54.80
2024-04-02T23:33:40.034Z,56.95
2024-04-02T23:35:48.034Z,58.79
2024-04-02T23:37:55.799Z,61.11
2024-04-02T23:40:04.242Z,62.23
2024-04-02T23:42:11.659Z,66.54
2024-04-02T23:44:19.407Z,64.75
2024-04-02T23:46:27.187Z,57.25
2024-04-02T23:48:34.995Z,54.54
2024-04-02T23:50:46.512Z,57.33
2024-04-02T23:52:53.923Z,57.95
2024-04-02T23:55:01.324Z,59.46
2024-04-02T23:57:09.151Z,59.37
2024-04-02T23:59:16.847Z,61.54
